createdAt,value
2018-06-11T00:01:37.646Z,99.90
2018-06-11T00:04:05.327Z,99.90
2018-06-11T00:06:32.949Z,99.90
2018-06-11T00:09:00.703Z,99.90
2018-06-11T00:11:28.368Z,99.90
2018-06-11T00:13:56.065Z,99.90
2018-06-11T00:16:23.781Z,99.90
2018-06-11T00:18:51.464Z,99.90
2018-06-11T00:21:19.784Z,99.90
2018-06-11T00:23:47.420Z,99.90
2018-06-11T00:26:15.071Z,99.90
2018-06-11T00:28:42.718Z,99.90
2018-06-11T00:31:10.611Z,99.90
2018-06-11T00:33:38.218Z,99.90
2018-06-11T00:36:05.915Z,99.90
2018-06-11T00:38:33.792Z,99.90
2018-06-11T00:41:01.444Z,99.90
2018-06-11T00:43:29.100Z,99.90
2018-06-11T00:45:56.761Z,99.90
2018-06-11T00:48:24.426Z,99.90
2018-06-11T00:50:52.103Z,99.90
2018-06-11T00:53:19.748Z,99.90
2018-06-11T00:55:58.638Z,99.90
2018-06-11T00:58:26.344Z,99.90
2018-06-11T01:00:54.010Z,99.90
2018-06-11T01:03:21.630Z,99.90
2018-06-11T01:05:49.255Z,99.90
2018-06-11T01:08:17.051Z,99.90
2018-06-11T01:10:44.719Z,99.90
2018-06-11T01:13:12.431Z,99.90
2018-06-11T01:15:40.079Z,99.90
2018-06-11T01:18:07.707Z,99.90
2018-06-11T01:20:36.268Z,99.90
2018-06-11T01:23:03.895Z,99.90
2018-06-11T01:25:31.594Z,99.90
2018-06-11T01:27:59.319Z,99.90
2018-06-11T01:30:26.975Z,99.90
2018-06-11T01:32:54.634Z,99.90
2018-06-11T01:35:23.244Z,99.90
2018-06-11T01:37:50.847Z,99.90
2018-06-11T01:40:19.147Z,99.90
2018-06-11T01:42:46.795Z,99.90
2018-06-11T01:45:14.471Z,99.90
2018-06-11T01:47:42.144Z,99.90
2018-06-11T01:50:09.999Z,99.90
2018-06-11T01:52:37.743Z,99.90
2018-06-11T01:55:05.572Z,99.90
2018-06-11T01:57:33.276Z,99.90
2018-06-11T02:00:00.931Z,99.90
2018-06-11T02:02:28.591Z,99.90
2018-06-11T02:04:56.290Z,99.90
2018-06-11T02:07:24.788Z,99.90
2018-06-11T02:09:52.433Z,99.90
2018-06-11T02:12:20.110Z,99.90
2018-06-11T02:14:47.759Z,99.90
2018-06-11T02:17:15.384Z,99.90
2018-06-11T02:19:43.096Z,99.90
2018-06-11T02:22:10.735Z,99.90
2018-06-11T02:24:38.420Z,99.90
2018-06-11T02:27:06.215Z,99.90
2018-06-11T02:29:33.853Z,99.90
2018-06-11T02:32:01.794Z,99.90
2018-06-11T02:34:29.466Z,99.90
2018-06-11T02:36:57.094Z,99.90
2018-06-11T02:39:24.796Z,99.90
2018-06-11T02:41:52.501Z,99.90
2018-06-11T02:44:20.140Z,99.90
2018-06-11T02:46:47.776Z,99.90
2018-06-11T02:49:15.425Z,99.90
2018-06-11T02:51:43.058Z,99.90
2018-06-11T02:54:10.683Z,99.90
2018-06-11T02:56:38.563Z,99.90
2018-06-11T02:59:06.211Z,99.90
2018-06-11T03:01:33.868Z,99.90
2018-06-11T03:04:02.156Z,99.90
2018-06-11T03:06:29.899Z,99.90
2018-06-11T03:08:57.679Z,99.90
2018-06-11T03:11:25.356Z,99.90
2018-06-11T03:13:53.206Z,99.90
2018-06-11T03:16:21.422Z,99.90
2018-06-11T03:18:49.062Z,99.90
2018-06-11T03:21:16.694Z,99.90
2018-06-11T03:23:44.739Z,99.90
2018-06-11T03:26:12.456Z,99.90
2018-06-11T03:28:40.347Z,99.90
2018-06-11T03:31:08.742Z,99.90
2018-06-11T03:33:36.369Z,99.90
2018-06-11T03:36:04.097Z,99.90
2018-06-11T03:38:31.785Z,99.90
2018-06-11T03:41:03.639Z,99.90
2018-06-11T03:43:31.276Z,99.90
2018-06-11T03:45:58.960Z,99.90
2018-06-11T03:48:26.636Z,99.90
2018-06-11T03:50:54.303Z,99.90
2018-06-11T03:53:21.952Z,99.20
2018-06-11T03:55:49.585Z,98.20
2018-06-11T03:58:17.308Z,96.80
2018-06-11T04:00:45.898Z,95.60
2018-06-11T04:03:14.152Z,94.60
2018-06-11T04:05:41.881Z,93.50
2018-06-11T04:08:09.483Z,92.40
2018-06-11T04:10:37.149Z,91.90
2018-06-11T04:13:04.965Z,91.30
2018-06-11T04:15:32.568Z,90.10
2018-06-11T04:18:00.182Z,86.90
2018-06-11T04:20:27.812Z,85.10
2018-06-11T04:22:55.461Z,87.30
2018-06-11T04:25:23.085Z,88.70
2018-06-11T04:27:50.752Z,90.00
2018-06-11T04:30:18.409Z,90.40
2018-06-11T04:32:46.083Z,88.10
2018-06-11T04:35:13.712Z,84.10
2018-06-11T04:37:41.374Z,80.20
2018-06-11T04:40:09.071Z,76.70
2018-06-11T04:42:36.705Z,72.20
2018-06-11T04:45:04.435Z,68.30
2018-06-11T04:47:32.081Z,64.70
2018-06-11T04:49:59.817Z,61.90
2018-06-11T04:52:27.498Z,60.50
2018-06-11T04:54:55.143Z,59.30
2018-06-11T04:57:22.823Z,56.90
2018-06-11T04:59:50.551Z,55.50
2018-06-11T05:02:18.254Z,54.40
2018-06-11T05:04:45.891Z,53.40
2018-06-11T05:07:14.147Z,51.80
2018-06-11T05:09:42.628Z,50.10
2018-06-11T05:12:10.315Z,48.90
2018-06-11T05:14:37.918Z,47.90
2018-06-11T05:17:05.564Z,47.10
2018-06-11T05:19:33.246Z,46.50
2018-06-11T05:22:00.902Z,45.70
2018-06-11T05:24:28.555Z,44.40
2018-06-11T05:26:56.172Z,44.00
2018-06-11T05:29:23.791Z,41.10
2018-06-11T05:31:51.436Z,42.00
2018-06-11T05:34:19.050Z,40.80
2018-06-11T05:36:46.664Z,40.40
2018-06-11T05:39:14.259Z,41.00
2018-06-11T05:41:41.880Z,41.80
2018-06-11T05:44:09.475Z,44.60
2018-06-11T05:46:37.139Z,44.20
2018-06-11T05:49:04.792Z,42.50
2018-06-11T05:51:32.436Z,41.60
2018-06-11T05:54:00.168Z,40.70
2018-06-11T05:56:27.788Z,40.50
2018-06-11T05:58:55.418Z,39.90
2018-06-11T06:01:23.029Z,38.90
2018-06-11T06:03:50.672Z,39.30
2018-06-11T06:06:18.283Z,38.60
2018-06-11T06:08:46.054Z,38.40
2018-06-11T06:11:13.618Z,36.90
2018-06-11T06:13:41.339Z,36.20
2018-06-11T06:16:08.974Z,36.00
2018-06-11T06:18:36.603Z,36.80
2018-06-11T06:21:04.240Z,37.70
2018-06-11T06:23:31.877Z,39.40
2018-06-11T06:25:59.486Z,43.20
2018-06-11T06:28:27.140Z,46.50
2018-06-11T06:30:54.809Z,49.50
2018-06-11T06:33:22.468Z,51.90
2018-06-11T06:35:50.211Z,53.70
2018-06-11T06:38:17.844Z,54.90
2018-06-11T06:40:45.455Z,55.90
2018-06-11T06:43:13.096Z,56.40
2018-06-11T06:45:40.824Z,56.50
2018-06-11T06:48:08.490Z,51.50
2018-06-11T06:50:36.097Z,47.40
2018-06-11T06:53:03.745Z,42.90
2018-06-11T06:55:31.362Z,43.00
2018-06-11T06:57:58.995Z,44.50
2018-06-11T07:00:26.664Z,45.10
2018-06-11T07:02:54.288Z,47.30
2018-06-11T07:05:21.950Z,50.80
2018-06-11T07:07:49.552Z,53.60
2018-06-11T07:10:17.278Z,56.40
2018-06-11T07:12:44.879Z,59.10
2018-06-11T07:15:12.519Z,61.40
2018-06-11T07:17:40.128Z,64.00
2018-06-11T07:20:07.797Z,65.70
2018-06-11T07:22:35.478Z,67.70
2018-06-11T07:25:03.180Z,69.80
2018-06-11T07:27:30.899Z,72.30
2018-06-11T07:29:58.473Z,74.30
2018-06-11T07:32:26.102Z,75.90
2018-06-11T07:34:53.815Z,77.20
2018-06-11T07:37:21.596Z,78.50
2018-06-11T07:39:49.192Z,80.00
2018-06-11T07:42:16.816Z,82.30
2018-06-11T07:44:44.400Z,84.70
2018-06-11T07:47:12.032Z,86.50
2018-06-11T07:49:39.668Z,86.80
2018-06-11T07:52:07.303Z,83.80
2018-06-11T07:54:35.000Z,82.40
2018-06-11T07:57:02.643Z,83.30
2018-06-11T07:59:30.286Z,83.40
2018-06-11T08:01:57.988Z,82.50
2018-06-11T08:04:25.607Z,82.60
2018-06-11T08:06:53.295Z,81.80
2018-06-11T08:09:20.917Z,81.90
2018-06-11T08:11:48.593Z,83.20
2018-06-11T08:14:16.283Z,81.90
2018-06-11T08:16:43.920Z,80.80
2018-06-11T08:19:11.628Z,80.90
2018-06-11T08:21:39.276Z,79.70
2018-06-11T08:24:06.942Z,78.80
2018-06-11T08:26:34.610Z,77.60
2018-06-11T08:29:02.293Z,72.90
2018-06-11T08:31:29.947Z,68.60
2018-06-11T08:33:57.875Z,66.60
2018-06-11T08:36:25.529Z,65.10
2018-06-11T08:38:53.227Z,64.20
2018-06-11T08:41:20.911Z,64.20
2018-06-11T08:43:48.552Z,63.60
2018-06-11T08:46:16.181Z,62.80
2018-06-11T08:48:43.795Z,60.60
2018-06-11T08:51:11.535Z,62.00
2018-06-11T08:53:39.148Z,61.70
2018-06-11T08:56:06.767Z,60.40
2018-06-11T08:58:34.476Z,61.60
2018-06-11T09:01:02.077Z,63.20
2018-06-11T09:03:29.704Z,62.40
2018-06-11T09:05:57.367Z,60.80
2018-06-11T09:08:25.003Z,62.10
2018-06-11T09:10:52.748Z,61.40
2018-06-11T09:13:20.403Z,64.00
2018-06-11T09:15:48.077Z,61.90
2018-06-11T09:18:15.927Z,63.60
2018-06-11T09:20:43.473Z,66.70
2018-06-11T09:23:12.173Z,64.80
2018-06-11T09:25:39.770Z,67.20
2018-06-11T09:28:07.382Z,66.40
2018-06-11T09:30:35.012Z,68.70
2018-06-11T09:33:02.619Z,72.30
2018-06-11T09:35:30.256Z,68.10
2018-06-11T09:37:57.854Z,69.40
2018-06-11T09:40:25.458Z,69.50
2018-06-11T09:42:53.071Z,70.70
2018-06-11T09:45:20.728Z,70.80
2018-06-11T09:47:48.375Z,73.00
2018-06-11T09:50:16.008Z,73.30
2018-06-11T09:52:43.614Z,71.80
2018-06-11T09:55:11.265Z,74.20
2018-06-11T09:57:38.887Z,72.30
2018-06-11T10:00:11.198Z,71.90
2018-06-11T10:02:38.817Z,71.70
2018-06-11T10:05:06.550Z,71.40
2018-06-11T10:07:34.270Z,72.70
2018-06-11T10:10:01.946Z,71.80
2018-06-11T10:12:29.615Z,68.80
2018-06-11T10:14:57.233Z,70.00
2018-06-11T10:17:24.827Z,68.50
2018-06-11T10:19:52.456Z,67.10
2018-06-11T10:22:20.083Z,67.40
2018-06-11T10:24:47.735Z,67.70
2018-06-11T10:27:15.384Z,67.90
2018-06-11T10:29:43.068Z,68.00
2018-06-11T10:32:10.728Z,68.00
2018-06-11T10:34:38.355Z,69.00
2018-06-11T10:37:05.932Z,70.50
2018-06-11T10:39:33.603Z,67.70
2018-06-11T10:42:01.227Z,66.90
2018-06-11T10:44:28.835Z,67.40
2018-06-11T10:46:56.453Z,68.60
2018-06-11T10:49:24.120Z,67.90
2018-06-11T10:51:51.786Z,69.00
2018-06-11T10:54:19.479Z,67.20
2018-06-11T10:56:47.132Z,67.90
2018-06-11T10:59:14.972Z,68.40
2018-06-11T11:01:43.266Z,68.40
2018-06-11T11:04:10.907Z,67.70
2018-06-11T11:06:38.668Z,68.90
2018-06-11T11:09:07.260Z,69.50
2018-06-11T11:11:35.273Z,68.20
2018-06-11T11:14:03.831Z,69.10
2018-06-11T11:16:32.425Z,69.30
2018-06-11T11:19:00.974Z,70.00
2018-06-11T11:21:28.755Z,70.70
2018-06-11T11:23:57.402Z,69.50
2018-06-11T11:26:25.500Z,68.80
2018-06-11T11:28:53.164Z,68.40
2018-06-11T11:31:20.851Z,67.50
2018-06-11T11:33:48.495Z,67.30
2018-06-11T11:36:16.127Z,69.70
2018-06-11T11:38:43.760Z,69.00
2018-06-11T11:41:11.403Z,66.00
2018-06-11T11:43:39.012Z,66.90
2018-06-11T11:46:06.994Z,66.30
2018-06-11T11:48:34.610Z,64.70
2018-06-11T11:51:02.389Z,65.00
2018-06-11T11:53:30.014Z,65.10
2018-06-11T11:55:57.693Z,66.30
2018-06-11T11:58:25.312Z,68.00
2018-06-11T12:00:53.005Z,63.20
2018-06-11T12:03:20.635Z,65.00
2018-06-11T12:05:48.318Z,64.60
2018-06-11T12:08:15.972Z,63.30
2018-06-11T12:10:43.738Z,63.30
2018-06-11T12:13:11.353Z,66.70
2018-06-11T12:15:38.972Z,66.40
2018-06-11T12:18:06.686Z,63.70
2018-06-11T12:20:34.395Z,63.60
2018-06-11T12:23:02.066Z,64.70
2018-06-11T12:25:29.775Z,65.20
2018-06-11T12:27:57.404Z,65.40
2018-06-11T12:30:25.031Z,65.20
2018-06-11T12:32:52.646Z,66.20
2018-06-11T12:35:20.283Z,66.90
2018-06-11T12:37:47.880Z,65.70
2018-06-11T12:40:15.538Z,65.10
2018-06-11T12:42:43.220Z,64.90
2018-06-11T12:45:10.967Z,65.20
2018-06-11T12:47:38.762Z,65.10
2018-06-11T12:50:06.356Z,64.50
2018-06-11T12:52:34.009Z,62.80
2018-06-11T12:55:01.675Z,62.90
2018-06-11T12:57:29.309Z,63.00
2018-06-11T12:59:56.995Z,62.90
2018-06-11T13:02:24.639Z,62.80
2018-06-11T13:04:52.303Z,64.20
2018-06-11T13:07:19.911Z,64.30
2018-06-11T13:09:47.580Z,64.40
2018-06-11T13:12:15.253Z,65.20
2018-06-11T13:14:42.899Z,66.10
2018-06-11T13:17:10.535Z,67.30
2018-06-11T13:19:38.276Z,66.60
2018-06-11T13:22:05.971Z,67.50
2018-06-11T13:24:33.623Z,68.60
2018-06-11T13:27:01.287Z,69.40
2018-06-11T13:29:29.352Z,69.90
2018-06-11T13:31:58.049Z,69.40
2018-06-11T13:34:25.960Z,69.60
2018-06-11T13:36:54.481Z,69.40
2018-06-11T13:39:22.136Z,70.60
2018-06-11T13:41:50.700Z,72.00
2018-06-11T13:44:18.347Z,71.80
2018-06-11T13:46:46.007Z,72.20
2018-06-11T13:49:13.702Z,73.30
2018-06-11T13:51:41.365Z,73.00
2018-06-11T13:54:09.031Z,73.60
2018-06-11T13:56:36.724Z,74.50
2018-06-11T13:59:04.440Z,74.40
2018-06-11T14:01:32.127Z,74.50
2018-06-11T14:03:59.948Z,74.50
2018-06-11T14:06:27.640Z,75.00
2018-06-11T14:08:55.301Z,75.60
2018-06-11T14:11:22.965Z,75.90
2018-06-11T14:13:50.598Z,75.40
2018-06-11T14:16:18.567Z,74.50
2018-06-11T14:18:46.194Z,76.70
2018-06-11T14:21:13.851Z,75.10
2018-06-11T14:23:41.752Z,75.90
2018-06-11T14:26:09.585Z,74.40
2018-06-11T14:28:37.371Z,74.20
2018-06-11T14:31:05.416Z,71.90
2018-06-11T14:34:35.812Z,73.50
2018-06-11T14:37:03.520Z,72.50
2018-06-11T14:39:31.250Z,72.10
2018-06-11T14:41:59.119Z,71.40
2018-06-11T14:44:27.091Z,72.20
2018-06-11T14:46:54.743Z,71.00
2018-06-11T14:49:22.444Z,71.40
2018-06-11T14:51:50.067Z,71.90
2018-06-11T14:54:17.775Z,69.80
2018-06-11T14:56:45.528Z,69.60
2018-06-11T14:59:13.202Z,70.90
2018-06-11T15:01:41.279Z,70.90
2018-06-11T15:04:09.078Z,71.40
2018-06-11T15:06:36.775Z,71.50
2018-06-11T15:09:06.212Z,74.20
2018-06-11T15:11:33.855Z,75.90
2018-06-11T15:14:01.661Z,77.70
2018-06-11T15:16:30.825Z,80.10
2018-06-11T15:18:58.969Z,80.20
2018-06-11T15:21:26.624Z,80.10
2018-06-11T15:23:54.277Z,80.40
2018-06-11T15:26:21.959Z,80.80
2018-06-11T15:28:49.635Z,80.50
2018-06-11T15:31:17.291Z,80.00
2018-06-11T15:33:44.908Z,79.70
2018-06-11T15:36:12.544Z,77.90
2018-06-11T15:38:40.327Z,78.50
2018-06-11T15:41:08.016Z,79.90
2018-06-11T15:43:35.648Z,79.30
2018-06-11T15:46:03.321Z,78.50
2018-06-11T15:48:30.948Z,78.90
2018-06-11T15:50:59.258Z,78.10
2018-06-11T15:53:26.915Z,76.20
2018-06-11T15:55:54.912Z,76.00
2018-06-11T15:58:22.557Z,77.20
2018-06-11T16:00:50.265Z,78.80
2018-06-11T16:03:18.142Z,82.50
2018-06-11T16:05:45.783Z,83.50
2018-06-11T16:08:13.443Z,82.60
2018-06-11T16:10:41.161Z,82.20
2018-06-11T16:13:08.838Z,83.80
2018-06-11T16:15:36.595Z,83.90
2018-06-11T16:18:04.266Z,85.20
2018-06-11T16:20:31.903Z,86.10
2018-06-11T16:22:59.527Z,86.90
2018-06-11T16:25:27.161Z,88.10
2018-06-11T16:27:54.801Z,89.60
2018-06-11T16:30:22.483Z,90.50
2018-06-11T16:32:50.212Z,91.00
2018-06-11T16:35:17.915Z,91.40
2018-06-11T16:37:45.637Z,91.60
2018-06-11T16:40:13.300Z,92.00
2018-06-11T16:42:40.979Z,92.10
2018-06-11T16:45:08.644Z,92.00
2018-06-11T16:47:36.482Z,92.10
2018-06-11T16:50:04.136Z,92.70
2018-06-11T16:52:32.748Z,95.30
2018-06-11T16:55:00.400Z,96.40
2018-06-11T16:57:28.320Z,95.40
2018-06-11T16:59:56.047Z,95.70
2018-06-11T17:02:23.648Z,94.70
2018-06-11T17:04:51.343Z,94.70
2018-06-11T17:07:18.970Z,94.30
2018-06-11T17:09:46.595Z,94.10
2018-06-11T17:12:14.361Z,94.40
2018-06-11T17:14:42.071Z,93.30
2018-06-11T17:17:09.891Z,94.00
2018-06-11T17:19:37.601Z,92.40
2018-06-11T17:22:05.335Z,92.20
2018-06-11T17:24:32.991Z,92.20
2018-06-11T17:27:01.571Z,91.90
2018-06-11T17:29:29.295Z,92.50
2018-06-11T17:31:56.935Z,93.10
2018-06-11T17:34:24.575Z,92.20
2018-06-11T17:36:52.304Z,93.60
2018-06-11T17:39:19.971Z,93.00
2018-06-11T17:41:47.620Z,92.70
2018-06-11T17:44:15.484Z,94.00
2018-06-11T17:46:43.156Z,93.70
2018-06-11T17:49:10.816Z,93.40
2018-06-11T17:51:38.467Z,94.10
2018-06-11T17:54:06.187Z,93.00
2018-06-11T17:56:33.843Z,94.30
2018-06-11T17:59:01.536Z,94.00
2018-06-11T18:01:29.769Z,93.40
2018-06-11T18:03:57.451Z,93.50
2018-06-11T18:06:25.316Z,93.30
2018-06-11T18:08:52.946Z,93.40
2018-06-11T18:11:21.123Z,93.10
2018-06-11T18:13:48.781Z,92.80
2018-06-11T18:16:16.451Z,92.80
2018-06-11T18:18:44.071Z,92.10
2018-06-11T18:21:11.743Z,92.70
2018-06-11T18:23:39.395Z,93.50
2018-06-11T18:26:07.036Z,92.80
2018-06-11T18:28:34.938Z,93.60
2018-06-11T18:31:02.939Z,92.80
2018-06-11T18:33:30.586Z,92.90
2018-06-11T18:35:58.191Z,92.80
2018-06-11T18:38:26.361Z,92.90
2018-06-11T18:40:54.502Z,92.60
2018-06-11T18:43:24.309Z,92.90
2018-06-11T18:45:52.792Z,92.50
2018-06-11T18:48:22.008Z,92.20
2018-06-11T18:50:50.663Z,92.70
2018-06-11T18:53:19.172Z,92.10
2018-06-11T18:55:47.452Z,92.70
2018-06-11T18:58:15.540Z,92.70
2018-06-11T19:00:43.746Z,91.80
2018-06-11T19:03:12.055Z,92.60
2018-06-11T19:05:40.705Z,93.00
2018-06-11T19:08:09.696Z,93.40
2018-06-11T19:10:38.373Z,93.40
2018-06-11T19:13:07.152Z,93.60
2018-06-11T19:15:36.338Z,93.40
2018-06-11T19:18:04.961Z,93.60
2018-06-11T19:20:33.333Z,93.90
2018-06-11T19:23:08.045Z,93.90
2018-06-11T19:25:36.739Z,94.10
2018-06-11T19:28:04.892Z,94.00
2018-06-11T19:30:32.665Z,94.40
2018-06-11T19:33:00.941Z,95.10
2018-06-11T19:35:29.697Z,95.20
2018-06-11T19:37:58.591Z,94.90
2018-06-11T19:40:27.853Z,95.10
2018-06-11T19:42:56.700Z,95.20
2018-06-11T19:45:24.863Z,93.90
2018-06-11T19:47:52.821Z,95.00
2018-06-11T19:50:21.295Z,95.40
2018-06-11T19:52:50.387Z,95.10
2018-06-11T19:55:18.761Z,95.00
2018-06-11T19:57:48.506Z,95.50
2018-06-11T20:00:16.879Z,95.30
2018-06-11T20:02:45.318Z,95.50
2018-06-11T20:05:13.427Z,95.70
2018-06-11T20:07:41.589Z,96.10
2018-06-11T20:10:09.895Z,96.00
2018-06-11T20:12:38.191Z,96.20
2018-06-11T20:15:06.508Z,96.30
2018-06-11T20:17:34.502Z,96.70
2018-06-11T20:20:02.639Z,96.70
2018-06-11T20:22:31.322Z,96.70
2018-06-11T20:24:59.819Z,96.80
2018-06-11T20:27:28.286Z,96.80
2018-06-11T20:29:56.894Z,96.70
2018-06-11T20:32:24.916Z,96.60
2018-06-11T20:34:52.947Z,96.60
2018-06-11T20:37:20.918Z,96.70
2018-06-11T20:39:49.604Z,96.60
2018-06-11T20:42:17.855Z,96.60
2018-06-11T20:44:46.259Z,96.60
2018-06-11T20:47:14.093Z,96.70
2018-06-11T20:49:42.211Z,96.60
2018-06-11T20:52:10.595Z,96.90
2018-06-11T20:54:39.008Z,97.10
2018-06-11T20:57:07.439Z,97.30
2018-06-11T20:59:36.203Z,97.50
2018-06-11T21:02:04.669Z,97.60
2018-06-11T21:04:33.310Z,98.00
2018-06-11T21:07:01.891Z,97.80
2018-06-11T21:09:30.652Z,98.20
2018-06-11T21:11:58.956Z,98.50
2018-06-11T21:14:27.473Z,98.50
2018-06-11T21:16:56.782Z,98.70
2018-06-11T21:19:25.028Z,99.10
2018-06-11T21:21:53.408Z,99.20
2018-06-11T21:24:21.642Z,99.30
2018-06-11T21:26:49.510Z,99.70
2018-06-11T21:29:17.453Z,99.70
2018-06-11T21:31:45.416Z,99.90
2018-06-11T21:34:13.768Z,99.90
2018-06-11T21:36:42.633Z,99.90
2018-06-11T21:39:11.708Z,99.90
2018-06-11T21:41:39.803Z,99.90
2018-06-11T21:44:07.678Z,99.90
2018-06-11T21:46:35.450Z,99.90
2018-06-11T21:49:03.534Z,99.90
2018-06-11T21:51:31.479Z,99.90
2018-06-11T21:53:59.171Z,99.90
2018-06-11T21:56:26.870Z,99.90
2018-06-11T21:58:54.611Z,99.90
2018-06-11T22:01:22.597Z,99.90
2018-06-11T22:03:50.378Z,99.90
2018-06-11T22:06:18.311Z,99.90
2018-06-11T22:08:46.320Z,99.90
2018-06-11T22:11:14.017Z,99.90
2018-06-11T22:13:41.733Z,99.90
2018-06-11T22:16:10.275Z,99.90
2018-06-11T22:18:38.722Z,99.90
2018-06-11T22:21:08.677Z,99.90
2018-06-11T22:23:36.332Z,99.90
2018-06-11T22:26:04.348Z,99.90
2018-06-11T22:28:32.006Z,99.90
2018-06-11T22:31:00.131Z,99.90
2018-06-11T22:33:27.933Z,99.90
2018-06-11T22:35:56.160Z,99.90
2018-06-11T22:38:23.999Z,99.90
2018-06-11T22:40:51.661Z,99.90
2018-06-11T22:43:19.332Z,99.90
2018-06-11T22:45:47.008Z,99.90
2018-06-11T22:48:14.815Z,99.90
2018-06-11T22:50:42.547Z,99.90
2018-06-11T22:53:10.494Z,99.90
2018-06-11T22:55:38.280Z,99.90
2018-06-11T22:58:06.143Z,99.90
2018-06-11T23:00:34.779Z,99.90
2018-06-11T23:03:02.512Z,99.90
2018-06-11T23:05:30.326Z,99.90
2018-06-11T23:07:58.014Z,99.90
2018-06-11T23:10:26.276Z,99.90
2018-06-11T23:12:54.015Z,99.90
2018-06-11T23:15:21.681Z,99.90
2018-06-11T23:17:49.862Z,99.90
2018-06-11T23:20:17.588Z,99.90
2018-06-11T23:22:45.260Z,99.90
2018-06-11T23:25:12.984Z,99.90
2018-06-11T23:27:40.730Z,99.90
2018-06-11T23:30:08.593Z,99.90
2018-06-11T23:32:36.452Z,99.90
2018-06-11T23:35:05.268Z,99.90
2018-06-11T23:37:33.219Z,99.90
2018-06-11T23:40:00.925Z,99.90
2018-06-11T23:42:28.987Z,99.90
2018-06-11T23:44:56.672Z,99.90
2018-06-11T23:47:24.459Z,99.90
2018-06-11T23:49:52.637Z,99.90
2018-06-11T23:52:21.369Z,99.90
2018-06-11T23:54:49.220Z,99.90
2018-06-11T23:57:17.236Z,99.90
2018-06-11T23:59:45.297Z,99.90
